sensor_id;sensor_type;location;lat;lon;timestamp;pressure;altitude;pressure_sealevel;temperature;humidity
45285;BME280;31026;43.780;25.948;2022-10-30T00:00:46;101602.34;;;20.47;58.87
45285;BME280;31026;43.780;25.948;2022-10-30T00:03:15;101592.47;;;20.48;58.67
45285;BME280;31026;43.780;25.948;2022-10-30T00:05:45;101585.75;;;20.42;58.58
45285;BME280;31026;43.780;25.948;2022-10-30T00:08:14;101587.22;;;20.46;58.81
45285;BME280;31026;43.780;25.948;2022-10-30T00:10:46;101594.44;;;20.45;58.59
45285;BME280;31026;43.780;25.948;2022-10-30T00:13:14;101587.22;;;20.46;58.73
45285;BME280;31026;43.780;25.948;2022-10-30T00:15:45;101582.81;;;20.45;58.44
45285;BME280;31026;43.780;25.948;2022-10-30T00:18:14;101576.69;;;20.43;58.54
45285;BME280;31026;43.780;25.948;2022-10-30T00:20:42;101579.38;;;20.43;58.55
45285;BME280;31026;43.780;25.948;2022-10-30T00:23:10;101572.06;;;20.45;58.32
45285;BME280;31026;43.780;25.948;2022-10-30T00:25:39;101572.94;;;20.45;58.48
45285;BME280;31026;43.780;25.948;2022-10-30T00:28:10;101567.78;;;20.42;58.55
45285;BME280;31026;43.780;25.948;2022-10-30T00:30:38;101570.38;;;20.44;58.56
45285;BME280;31026;43.780;25.948;2022-10-30T00:33:06;101569.53;;;20.43;58.40
45285;BME280;31026;43.780;25.948;2022-10-30T00:35:35;101556.44;;;20.39;58.26
45285;BME280;31026;43.780;25.948;2022-10-30T00:38:03;101559.00;;;20.40;58.46
45285;BME280;31026;43.780;25.948;2022-10-30T00:40:31;101555.47;;;20.40;58.52
45285;BME280;31026;43.780;25.948;2022-10-30T00:43:00;101554.75;;;20.38;58.79
45285;BME280;31026;43.780;25.948;2022-10-30T00:45:30;101557.44;;;20.38;58.33
45285;BME280;31026;43.780;25.948;2022-10-30T00:47:59;101544.00;;;20.38;58.29
45285;BME280;31026;43.780;25.948;2022-10-30T00:50:29;101558.88;;;20.42;58.45
45285;BME280;31026;43.780;25.948;2022-10-30T00:52:59;101546.56;;;20.39;58.52
45285;BME280;31026;43.780;25.948;2022-10-30T00:55:29;101548.53;;;20.37;58.42
45285;BME280;31026;43.780;25.948;2022-10-30T00:57:58;101550.09;;;20.40;58.71
45285;BME280;31026;43.780;25.948;2022-10-30T01:00:31;101556.44;;;20.39;58.67
45285;BME280;31026;43.780;25.948;2022-10-30T01:03:00;101536.56;;;20.85;57.80
45285;BME280;31026;43.780;25.948;2022-10-30T01:05:29;101556.03;;;21.40;56.15
45285;BME280;31026;43.780;25.948;2022-10-30T01:07:59;101545.34;;;21.71;55.62
45285;BME280;31026;43.780;25.948;2022-10-30T01:10:28;101534.59;;;21.71;55.57
45285;BME280;31026;43.780;25.948;2022-10-30T01:12:56;101533.59;;;21.30;56.43
45285;BME280;31026;43.780;25.948;2022-10-30T01:15:27;101531.59;;;21.43;56.59
45285;BME280;31026;43.780;25.948;2022-10-30T01:18:15;101526.38;;;21.82;55.50
45285;BME280;31026;43.780;25.948;2022-10-30T01:20:52;101513.25;;;22.30;54.38
45285;BME280;31026;43.780;25.948;2022-10-30T01:23:30;101531.00;;;22.52;53.87
45285;BME280;31026;43.780;25.948;2022-10-30T01:26:03;101532.13;;;21.99;54.75
45285;BME280;31026;43.780;25.948;2022-10-30T01:28:39;101527.41;;;21.51;56.58
45285;BME280;31026;43.780;25.948;2022-10-30T01:31:13;101532.78;;;21.51;56.46
45285;BME280;31026;43.780;25.948;2022-10-30T01:33:50;101531.66;;;21.84;56.00
45285;BME280;31026;43.780;25.948;2022-10-30T01:36:21;101518.38;;;22.33;54.68
45285;BME280;31026;43.780;25.948;2022-10-30T01:38:52;101524.47;;;22.44;54.21
45285;BME280;31026;43.780;25.948;2022-10-30T01:41:21;101529.72;;;21.96;55.13
45285;BME280;31026;43.780;25.948;2022-10-30T01:43:51;101514.66;;;21.53;56.38
45285;BME280;31026;43.780;25.948;2022-10-30T01:49:22;101508.00;;;21.88;55.74
45285;BME280;31026;43.780;25.948;2022-10-30T01:51:59;101503.88;;;21.83;55.98
45285;BME280;31026;43.780;25.948;2022-10-30T01:54:35;101498.53;;;21.53;56.81
45285;BME280;31026;43.780;25.948;2022-10-30T01:57:06;101482.63;;;21.50;56.96
45285;BME280;31026;43.780;25.948;2022-10-30T01:59:36;101495.53;;;21.87;55.81
45285;BME280;31026;43.780;25.948;2022-10-30T02:02:06;101492.47;;;22.01;55.70
45285;BME280;31026;43.780;25.948;2022-10-30T02:04:38;101502.44;;;21.79;55.93
45285;BME280;31026;43.780;25.948;2022-10-30T02:07:06;101483.34;;;21.52;56.84
45285;BME280;31026;43.780;25.948;2022-10-30T02:09:35;101495.53;;;21.56;56.65
45285;BME280;31026;43.780;25.948;2022-10-30T02:12:04;101492.13;;;21.84;56.16
45285;BME280;31026;43.780;25.948;2022-10-30T02:14:33;101505.78;;;22.12;55.55
45285;BME280;31026;43.780;25.948;2022-10-30T02:17:03;101482.03;;;21.77;56.04
45285;BME280;31026;43.780;25.948;2022-10-30T02:19:32;101482.81;;;21.58;56.41
45285;BME280;31026;43.780;25.948;2022-10-30T02:22:03;101481.66;;;21.51;56.97
45285;BME280;31026;43.780;25.948;2022-10-30T02:24:32;101497.78;;;21.81;56.29
45285;BME280;31026;43.780;25.948;2022-10-30T02:27:00;101485.34;;;22.00;55.57
45285;BME280;31026;43.780;25.948;2022-10-30T02:29:29;101491.94;;;21.76;56.29
45285;BME280;31026;43.780;25.948;2022-10-30T02:31:57;101494.69;;;21.55;56.66
45285;BME280;31026;43.780;25.948;2022-10-30T02:34:25;101491.47;;;21.61;56.73
45285;BME280;31026;43.780;25.948;2022-10-30T02:36:53;101487.63;;;21.95;55.87
45285;BME280;31026;43.780;25.948;2022-10-30T02:39:24;101481.94;;;21.98;55.86
45285;BME280;31026;43.780;25.948;2022-10-30T02:41:55;101487.56;;;21.75;56.07
45285;BME280;31026;43.780;25.948;2022-10-30T02:44:26;101501.66;;;21.58;56.54
45285;BME280;31026;43.780;25.948;2022-10-30T02:46:54;101499.41;;;21.63;56.67
45285;BME280;31026;43.780;25.948;2022-10-30T02:49:22;101498.53;;;21.93;55.94
45285;BME280;31026;43.780;25.948;2022-10-30T02:51:50;101496.13;;;22.00;55.62
45285;BME280;31026;43.780;25.948;2022-10-30T02:54:20;101492.66;;;21.78;56.06
45285;BME280;31026;43.780;25.948;2022-10-30T02:56:51;101486.94;;;21.62;56.55
45285;BME280;31026;43.780;25.948;2022-10-30T02:59:19;101496.00;;;21.61;56.87
45285;BME280;31026;43.780;25.948;2022-10-30T03:01:47;101477.81;;;21.94;55.93
45285;BME280;31026;43.780;25.948;2022-10-30T03:04:16;101482.06;;;21.96;55.93
45285;BME280;31026;43.780;25.948;2022-10-30T03:06:44;101480.91;;;21.79;56.35
45285;BME280;31026;43.780;25.948;2022-10-30T03:09:14;101482.22;;;21.54;57.13
45285;BME280;31026;43.780;25.948;2022-10-30T03:11:42;101461.44;;;21.66;57.31
45285;BME280;31026;43.780;25.948;2022-10-30T03:14:13;101467.19;;;21.92;56.73
45285;BME280;31026;43.780;25.948;2022-10-30T03:16:42;101462.31;;;21.76;57.37
45285;BME280;31026;43.780;25.948;2022-10-30T03:19:10;101462.41;;;21.55;57.55
45285;BME280;31026;43.780;25.948;2022-10-30T03:21:38;101473.13;;;21.45;58.04
45285;BME280;31026;43.780;25.948;2022-10-30T03:24:07;101462.16;;;21.68;57.52
45285;BME280;31026;43.780;25.948;2022-10-30T03:26:35;101457.84;;;21.96;56.80
45285;BME280;31026;43.780;25.948;2022-10-30T03:29:03;101469.84;;;21.82;57.39
45285;BME280;31026;43.780;25.948;2022-10-30T03:31:34;101453.91;;;21.60;57.93
45285;BME280;31026;43.780;25.948;2022-10-30T03:34:03;101472.78;;;21.39;58.55
45285;BME280;31026;43.780;25.948;2022-10-30T03:36:31;101461.91;;;21.71;57.43
45285;BME280;31026;43.780;25.948;2022-10-30T03:39:00;101446.22;;;21.96;56.83
45285;BME280;31026;43.780;25.948;2022-10-30T03:41:28;101457.97;;;21.85;57.08
45285;BME280;31026;43.780;25.948;2022-10-30T03:43:56;101459.44;;;21.58;57.75
45285;BME280;31026;43.780;25.948;2022-10-30T03:46:24;101472.63;;;21.40;58.51
45285;BME280;31026;43.780;25.948;2022-10-30T03:48:57;101453.78;;;21.61;57.99
45285;BME280;31026;43.780;25.948;2022-10-30T03:51:25;101465.94;;;22.06;56.71
45285;BME280;31026;43.780;25.948;2022-10-30T03:53:54;101461.66;;;21.94;57.42
45285;BME280;31026;43.780;25.948;2022-10-30T03:56:22;101473.94;;;21.67;57.68
45285;BME280;31026;43.780;25.948;2022-10-30T03:58:50;101460.81;;;21.43;58.41
45285;BME280;31026;43.780;25.948;2022-10-30T04:01:19;101441.88;;;21.64;58.01
45285;BME280;31026;43.780;25.948;2022-10-30T04:03:47;101451.06;;;22.02;56.71
45285;BME280;31026;43.780;25.948;2022-10-30T04:06:18;101451.19;;;21.91;57.35
45285;BME280;31026;43.780;25.948;2022-10-30T04:08:46;101454.50;;;21.63;57.77
45285;BME280;31026;43.780;25.948;2022-10-30T04:11:15;101449.88;;;21.44;58.51
45285;BME280;31026;43.780;25.948;2022-10-30T04:13:43;101446.16;;;21.67;57.86
45285;BME280;31026;43.780;25.948;2022-10-30T04:16:11;101448.78;;;21.97;57.17
45285;BME280;31026;43.780;25.948;2022-10-30T04:18:39;101445.63;;;21.92;57.32
45285;BME280;31026;43.780;25.948;2022-10-30T04:21:08;101432.97;;;21.63;57.85
45285;BME280;31026;43.780;25.948;2022-10-30T04:23:39;101440.13;;;21.43;58.61
45285;BME280;31026;43.780;25.948;2022-10-30T04:26:07;101444.41;;;21.56;58.35
45285;BME280;31026;43.780;25.948;2022-10-30T04:28:35;101438.69;;;21.90;57.51
45285;BME280;31026;43.780;25.948;2022-10-30T04:31:04;101449.47;;;21.90;57.60
45285;BME280;31026;43.780;25.948;2022-10-30T04:33:32;101447.97;;;21.66;58.16
45285;BME280;31026;43.780;25.948;2022-10-30T04:36:00;101442.69;;;21.45;58.62
45285;BME280;31026;43.780;25.948;2022-10-30T04:38:28;101450.38;;;21.59;58.39
45285;BME280;31026;43.780;25.948;2022-10-30T04:41:00;101440.97;;;21.94;57.36
45285;BME280;31026;43.780;25.948;2022-10-30T04:43:28;101436.56;;;21.83;58.10
45285;BME280;31026;43.780;25.948;2022-10-30T04:45:56;101434.81;;;21.63;58.77
45285;BME280;31026;43.780;25.948;2022-10-30T04:48:25;101446.38;;;21.54;59.21
45285;BME280;31026;43.780;25.948;2022-10-30T04:50:53;101450.47;;;21.48;59.25
45285;BME280;31026;43.780;25.948;2022-10-30T04:53:21;101457.19;;;21.42;59.75
45285;BME280;31026;43.780;25.948;2022-10-30T04:55:51;101455.34;;;21.33;59.94
45285;BME280;31026;43.780;25.948;2022-10-30T04:58:22;101436.75;;;21.30;59.55
45285;BME280;31026;43.780;25.948;2022-10-30T05:00:51;101443.69;;;21.23;60.35
45285;BME280;31026;43.780;25.948;2022-10-30T05:03:19;101446.81;;;21.28;59.98
45285;BME280;31026;43.780;25.948;2022-10-30T05:05:54;101452.25;;;21.17;60.35
45285;BME280;31026;43.780;25.948;2022-10-30T05:08:24;101466.56;;;21.17;60.07
45285;BME280;31026;43.780;25.948;2022-10-30T05:10:52;101449.84;;;21.14;60.45
45285;BME280;31026;43.780;25.948;2022-10-30T05:13:23;101459.41;;;21.06;60.57
45285;BME280;31026;43.780;25.948;2022-10-30T05:15:52;101464.34;;;21.01;60.48
45285;BME280;31026;43.780;25.948;2022-10-30T05:18:21;101455.28;;;21.02;60.81
45285;BME280;31026;43.780;25.948;2022-10-30T05:20:49;101458.97;;;21.01;60.89
45285;BME280;31026;43.780;25.948;2022-10-30T05:23:18;101470.72;;;21.00;60.90
45285;BME280;31026;43.780;25.948;2022-10-30T05:25:46;101463.63;;;20.99;60.92
45285;BME280;31026;43.780;25.948;2022-10-30T05:28:15;101472.66;;;20.98;61.10
45285;BME280;31026;43.780;25.948;2022-10-30T05:30:46;101468.75;;;21.02;60.74
45285;BME280;31026;43.780;25.948;2022-10-30T05:33:14;101477.47;;;21.16;60.76
45285;BME280;31026;43.780;25.948;2022-10-30T05:35:42;101476.63;;;21.67;59.67
45285;BME280;31026;43.780;25.948;2022-10-30T05:38:11;101474.81;;;21.77;59.06
45285;BME280;31026;43.780;25.948;2022-10-30T05:40:39;101470.16;;;21.49;59.96
45285;BME280;31026;43.780;25.948;2022-10-30T05:43:08;101479.66;;;21.83;59.52
45285;BME280;31026;43.780;25.948;2022-10-30T05:45:37;101487.13;;;22.20;57.95
45285;BME280;31026;43.780;25.948;2022-10-30T05:48:08;101485.91;;;21.94;58.93
45285;BME280;31026;43.780;25.948;2022-10-30T05:50:36;101482.44;;;21.72;59.51
45285;BME280;31026;43.780;25.948;2022-10-30T05:53:05;101487.47;;;21.56;59.47
45285;BME280;31026;43.780;25.948;2022-10-30T05:55:34;101490.25;;;21.44;60.26
45285;BME280;31026;43.780;25.948;2022-10-30T05:58:03;101477.97;;;21.52;57.75
45285;BME280;31026;43.780;25.948;2022-10-30T06:00:33;101471.75;;;21.51;59.73
45285;BME280;31026;43.780;25.948;2022-10-30T06:03:03;101481.22;;;21.03;50.36
45285;BME280;31026;43.780;25.948;2022-10-30T06:05:35;101478.25;;;21.06;54.97
45285;BME280;31026;43.780;25.948;2022-10-30T06:08:05;101483.03;;;21.24;56.01
45285;BME280;31026;43.780;25.948;2022-10-30T06:10:34;101483.34;;;21.31;56.93
45285;BME280;31026;43.780;25.948;2022-10-30T06:13:02;101483.63;;;21.28;56.73
45285;BME280;31026;43.780;25.948;2022-10-30T06:15:31;101466.22;;;21.11;53.65
45285;BME280;31026;43.780;25.948;2022-10-30T06:18:00;101473.16;;;21.03;52.36
45285;BME280;31026;43.780;25.948;2022-10-30T06:20:29;101472.44;;;21.01;52.06
45285;BME280;31026;43.780;25.948;2022-10-30T06:23:00;101479.31;;;20.94;51.25
45285;BME280;31026;43.780;25.948;2022-10-30T06:25:30;101486.84;;;21.73;52.36
45285;BME280;31026;43.780;25.948;2022-10-30T06:27:59;101478.13;;;21.91;52.05
45285;BME280;31026;43.780;25.948;2022-10-30T06:30:27;101479.97;;;22.00;52.53
45285;BME280;31026;43.780;25.948;2022-10-30T06:32:56;101473.09;;;21.67;53.44
45285;BME280;31026;43.780;25.948;2022-10-30T06:35:25;101471.88;;;21.50;53.68
45285;BME280;31026;43.780;25.948;2022-10-30T06:37:53;101477.94;;;21.31;53.55
45285;BME280;31026;43.780;25.948;2022-10-30T06:40:28;101465.19;;;21.23;54.05
45285;BME280;31026;43.780;25.948;2022-10-30T06:42:56;101471.25;;;21.15;54.56
45285;BME280;31026;43.780;25.948;2022-10-30T06:45:24;101472.09;;;21.16;54.55
45285;BME280;31026;43.780;25.948;2022-10-30T06:47:53;101468.78;;;21.12;54.34
45285;BME280;31026;43.780;25.948;2022-10-30T06:50:21;101472.09;;;21.16;54.19
45285;BME280;31026;43.780;25.948;2022-10-30T06:52:49;101467.97;;;21.12;54.82
45285;BME280;31026;43.780;25.948;2022-10-30T06:55:19;101459.28;;;21.08;54.90
45285;BME280;31026;43.780;25.948;2022-10-30T06:57:54;101456.72;;;21.06;54.86
45285;BME280;31026;43.780;25.948;2022-10-30T07:00:23;101480.09;;;21.06;54.71
45285;BME280;31026;43.780;25.948;2022-10-30T07:02:57;101454.91;;;21.07;55.02
45285;BME280;31026;43.780;25.948;2022-10-30T07:05:26;101454.50;;;21.12;54.92
45285;BME280;31026;43.780;25.948;2022-10-30T07:07:56;101434.97;;;21.10;55.00
45285;BME280;31026;43.780;25.948;2022-10-30T07:10:25;101441.31;;;21.09;55.44
45285;BME280;31026;43.780;25.948;2022-10-30T07:12:55;101454.03;;;21.06;56.12
45285;BME280;31026;43.780;25.948;2022-10-30T07:15:24;101451.22;;;21.08;56.38
45285;BME280;31026;43.780;25.948;2022-10-30T07:17:57;101451.50;;;21.05;57.15
45285;BME280;31026;43.780;25.948;2022-10-30T07:20:26;101444.72;;;21.11;57.19
45285;BME280;31026;43.780;25.948;2022-10-30T07:22:55;101455.75;;;21.08;56.91
45285;BME280;31026;43.780;25.948;2022-10-30T07:25:24;101452.34;;;21.05;57.41
45285;BME280;31026;43.780;25.948;2022-10-30T07:27:53;101448.13;;;21.13;56.98
45285;BME280;31026;43.780;25.948;2022-10-30T07:30:24;101446.44;;;21.12;57.16
45285;BME280;31026;43.780;25.948;2022-10-30T07:32:57;101434.56;;;21.14;57.16
45285;BME280;31026;43.780;25.948;2022-10-30T07:35:25;101451.75;;;21.23;57.32
45285;BME280;31026;43.780;25.948;2022-10-30T07:37:54;101452.19;;;21.28;57.50
45285;BME280;31026;43.780;25.948;2022-10-30T07:40:22;101456.97;;;21.24;57.42
45285;BME280;31026;43.780;25.948;2022-10-30T07:42:54;101450.88;;;21.22;57.70
45285;BME280;31026;43.780;25.948;2022-10-30T07:45:25;101459.22;;;21.19;57.59
45285;BME280;31026;43.780;25.948;2022-10-30T07:47:54;101453.72;;;21.21;57.79
45285;BME280;31026;43.780;25.948;2022-10-30T07:50:23;101450.75;;;21.24;57.66
45285;BME280;31026;43.780;25.948;2022-10-30T07:52:52;101454.44;;;21.23;57.93
45285;BME280;31026;43.780;25.948;2022-10-30T07:55:20;101453.00;;;21.19;57.83
45285;BME280;31026;43.780;25.948;2022-10-30T07:57:49;101447.22;;;21.23;57.98
45285;BME280;31026;43.780;25.948;2022-10-30T08:00:17;101448.25;;;21.32;57.57
45285;BME280;31026;43.780;25.948;2022-10-30T08:02:50;101442.00;;;21.32;58.09
45285;BME280;31026;43.780;25.948;2022-10-30T08:05:20;101443.25;;;21.28;58.38
45285;BME280;31026;43.780;25.948;2022-10-30T08:07:48;101434.91;;;21.21;58.38
45285;BME280;31026;43.780;25.948;2022-10-30T08:10:16;101443.56;;;21.34;58.26
45285;BME280;31026;43.780;25.948;2022-10-30T08:12:45;101415.22;;;21.30;58.30
45285;BME280;31026;43.780;25.948;2022-10-30T08:15:13;101416.25;;;21.29;58.16
45285;BME280;31026;43.780;25.948;2022-10-30T08:17:42;101416.50;;;21.26;58.46
45285;BME280;31026;43.780;25.948;2022-10-30T08:20:14;101414.81;;;21.25;58.70
45285;BME280;31026;43.780;25.948;2022-10-30T08:22:43;101411.69;;;21.30;58.30
45285;BME280;31026;43.780;25.948;2022-10-30T08:25:12;101411.56;;;21.31;58.70
45285;BME280;31026;43.780;25.948;2022-10-30T08:27:47;101423.06;;;21.33;58.71
45285;BME280;31026;43.780;25.948;2022-10-30T08:30:16;101395.84;;;21.36;58.72
45285;BME280;31026;43.780;25.948;2022-10-30T08:32:44;101405.91;;;21.34;58.88
45285;BME280;31026;43.780;25.948;2022-10-30T08:35:15;101395.84;;;21.36;58.85
45285;BME280;31026;43.780;25.948;2022-10-30T08:37:43;101396.53;;;21.50;58.97
45285;BME280;31026;43.780;25.948;2022-10-30T08:40:12;101395.81;;;21.48;58.44
45285;BME280;31026;43.780;25.948;2022-10-30T08:42:40;101385.56;;;21.41;59.10
45285;BME280;31026;43.780;25.948;2022-10-30T08:45:09;101391.91;;;21.40;59.11
45285;BME280;31026;43.780;25.948;2022-10-30T08:47:37;101383.19;;;21.48;59.08
45285;BME280;31026;43.780;25.948;2022-10-30T08:50:06;101385.28;;;21.44;59.10
45285;BME280;31026;43.780;25.948;2022-10-30T08:52:37;101380.38;;;21.50;59.27
45285;BME280;31026;43.780;25.948;2022-10-30T08:55:06;101381.16;;;21.40;59.20
45285;BME280;31026;43.780;25.948;2022-10-30T08:57:34;101384.03;;;21.49;59.23
45285;BME280;31026;43.780;25.948;2022-10-30T09:00:04;101371.84;;;21.44;59.08
45285;BME280;31026;43.780;25.948;2022-10-30T09:02:32;101368.06;;;21.47;59.32
45285;BME280;31026;43.780;25.948;2022-10-30T09:05:03;101364.22;;;21.50;59.18
45285;BME280;31026;43.780;25.948;2022-10-30T09:07:32;101359.97;;;21.47;59.13
45285;BME280;31026;43.780;25.948;2022-10-30T09:10:03;101351.75;;;21.49;59.20
45285;BME280;31026;43.780;25.948;2022-10-30T09:12:31;101356.88;;;21.52;59.28
45285;BME280;31026;43.780;25.948;2022-10-30T09:15:00;101343.66;;;21.49;58.76
45285;BME280;31026;43.780;25.948;2022-10-30T09:17:28;101340.16;;;21.58;58.41
45285;BME280;31026;43.780;25.948;2022-10-30T09:19:56;101350.34;;;21.54;58.80
45285;BME280;31026;43.780;25.948;2022-10-30T09:22:25;101353.19;;;21.62;58.86
45285;BME280;31026;43.780;25.948;2022-10-30T09:24:53;101336.91;;;21.64;58.93
45285;BME280;31026;43.780;25.948;2022-10-30T09:27:24;101336.34;;;21.60;59.03
45285;BME280;31026;43.780;25.948;2022-10-30T09:29:52;101332.09;;;21.58;58.89
45285;BME280;31026;43.780;25.948;2022-10-30T09:32:20;101338.16;;;21.50;59.02
45285;BME280;31026;43.780;25.948;2022-10-30T09:34:49;101335.59;;;21.49;59.34
45285;BME280;31026;43.780;25.948;2022-10-30T09:37:17;101339.31;;;21.57;58.61
45285;BME280;31026;43.780;25.948;2022-10-30T09:39:45;101330.81;;;21.62;58.18
45285;BME280;31026;43.780;25.948;2022-10-30T09:42:18;101328.44;;;21.59;57.43
45285;BME280;31026;43.780;25.948;2022-10-30T09:44:54;101332.50;;;21.53;58.18
45285;BME280;31026;43.780;25.948;2022-10-30T09:47:26;101330.56;;;21.65;58.77
45285;BME280;31026;43.780;25.948;2022-10-30T09:50:06;101336.06;;;21.63;59.72
45285;BME280;31026;43.780;25.948;2022-10-30T09:52:44;101322.00;;;21.50;59.78
45285;BME280;31026;43.780;25.948;2022-10-30T09:55:19;101327.97;;;21.54;60.23
45285;BME280;31026;43.780;25.948;2022-10-30T09:57:55;101329.38;;;21.48;61.43
45285;BME280;31026;43.780;25.948;2022-10-30T10:00:28;101324.50;;;21.42;61.62
45285;BME280;31026;43.780;25.948;2022-10-30T10:03:03;101329.06;;;21.41;61.31
45285;BME280;31026;43.780;25.948;2022-10-30T10:05:38;101314.59;;;21.42;61.11
45285;BME280;31026;43.780;25.948;2022-10-30T10:08:08;101323.88;;;21.50;61.34
45285;BME280;31026;43.780;25.948;2022-10-30T10:10:39;101311.91;;;21.42;61.64
45285;BME280;31026;43.780;25.948;2022-10-30T10:13:12;101317.72;;;21.38;61.57
45285;BME280;31026;43.780;25.948;2022-10-30T10:15:47;101307.25;;;21.35;61.40
45285;BME280;31026;43.780;25.948;2022-10-30T10:18:17;101320.91;;;21.53;60.98
45285;BME280;31026;43.780;25.948;2022-10-30T10:20:46;101307.88;;;21.58;60.43
45285;BME280;31026;43.780;25.948;2022-10-30T10:23:17;101299.94;;;21.66;58.06
45285;BME280;31026;43.780;25.948;2022-10-30T10:25:48;101308.88;;;21.76;59.24
45285;BME280;31026;43.780;25.948;2022-10-30T10:28:25;101288.59;;;21.62;60.00
45285;BME280;31026;43.780;25.948;2022-10-30T10:31:03;101294.56;;;21.76;60.99
45285;BME280;31026;43.780;25.948;2022-10-30T10:33:40;101281.53;;;21.81;61.02
45285;BME280;31026;43.780;25.948;2022-10-30T10:36:19;101281.38;;;21.82;61.13
45285;BME280;31026;43.780;25.948;2022-10-30T10:38:53;101283.09;;;21.74;61.77
45285;BME280;31026;43.780;25.948;2022-10-30T10:41:26;101285.22;;;21.80;62.00
45285;BME280;31026;43.780;25.948;2022-10-30T10:44:02;101277.13;;;21.80;61.22
45285;BME280;31026;43.780;25.948;2022-10-30T10:49:35;101265.94;;;21.55;59.82
45285;BME280;31026;43.780;25.948;2022-10-30T10:52:07;101271.91;;;21.59;60.64
45285;BME280;31026;43.780;25.948;2022-10-30T10:54:38;101257.31;;;21.61;60.20
45285;BME280;31026;43.780;25.948;2022-10-30T10:57:12;101257.88;;;21.65;59.84
45285;BME280;31026;43.780;25.948;2022-10-30T10:59:44;101259.16;;;21.61;60.92
45285;BME280;31026;43.780;25.948;2022-10-30T11:02:25;101249.66;;;21.57;60.76
45285;BME280;31026;43.780;25.948;2022-10-30T11:04:59;101235.66;;;21.63;60.95
45285;BME280;31026;43.780;25.948;2022-10-30T11:07:29;101231.53;;;21.69;60.29
45285;BME280;31026;43.780;25.948;2022-10-30T11:09:58;101252.63;;;21.73;60.44
45285;BME280;31026;43.780;25.948;2022-10-30T11:12:28;101215.78;;;21.74;60.23
45285;BME280;31026;43.780;25.948;2022-10-30T11:14:56;101227.41;;;21.74;60.34
45285;BME280;31026;43.780;25.948;2022-10-30T11:17:26;101224.56;;;21.76;60.47
45285;BME280;31026;43.780;25.948;2022-10-30T11:19:56;101223.28;;;21.80;60.23
45285;BME280;31026;43.780;25.948;2022-10-30T11:22:30;101218.34;;;21.75;60.30
45285;BME280;31026;43.780;25.948;2022-10-30T11:25:16;101226.28;;;21.77;60.79
45285;BME280;31026;43.780;25.948;2022-10-30T11:27:45;101206.75;;;21.75;60.85
45285;BME280;31026;43.780;25.948;2022-10-30T11:30:18;101199.50;;;21.65;61.07
45285;BME280;31026;43.780;25.948;2022-10-30T11:32:47;101203.34;;;21.53;61.70
45285;BME280;31026;43.780;25.948;2022-10-30T11:35:16;101179.69;;;21.57;61.43
45285;BME280;31026;43.780;25.948;2022-10-30T11:37:48;101197.97;;;21.63;61.68
45285;BME280;31026;43.780;25.948;2022-10-30T11:40:17;101181.38;;;21.58;61.34
45285;BME280;31026;43.780;25.948;2022-10-30T11:42:47;101180.41;;;21.59;61.34
45285;BME280;31026;43.780;25.948;2022-10-30T11:45:17;101178.13;;;21.64;61.12
45285;BME280;31026;43.780;25.948;2022-10-30T11:47:47;101176.44;;;21.63;60.66
45285;BME280;31026;43.780;25.948;2022-10-30T11:50:16;101175.72;;;21.71;59.55
45285;BME280;31026;43.780;25.948;2022-10-30T11:52:48;101166.50;;;21.83;58.79
45285;BME280;31026;43.780;25.948;2022-10-30T11:55:18;101154.00;;;21.92;58.98
45285;BME280;31026;43.780;25.948;2022-10-30T11:57:47;101164.75;;;22.01;59.97
45285;BME280;31026;43.780;25.948;2022-10-30T12:00:18;101165.31;;;22.05;60.04
45285;BME280;31026;43.780;25.948;2022-10-30T12:02:47;101170.56;;;21.97;60.93
45285;BME280;31026;43.780;25.948;2022-10-30T12:08:20;101151.38;;;22.10;61.08
45285;BME280;31026;43.780;25.948;2022-10-30T12:10:58;101148.81;;;22.18;60.78
45285;BME280;31026;43.780;25.948;2022-10-30T12:13:30;101159.44;;;22.19;62.32
45285;BME280;31026;43.780;25.948;2022-10-30T12:16:07;101158.16;;;22.23;62.30
45285;BME280;31026;43.780;25.948;2022-10-30T12:18:36;101153.06;;;22.20;62.02
45285;BME280;31026;43.780;25.948;2022-10-30T12:21:05;101152.75;;;22.23;61.90
45285;BME280;31026;43.780;25.948;2022-10-30T12:23:36;101143.97;;;22.31;63.03
45285;BME280;31026;43.780;25.948;2022-10-30T12:26:08;101158.59;;;22.29;62.34
45285;BME280;31026;43.780;25.948;2022-10-30T12:28:38;101147.38;;;22.23;61.92
45285;BME280;31026;43.780;25.948;2022-10-30T12:31:08;101151.06;;;22.32;62.65
45285;BME280;31026;43.780;25.948;2022-10-30T12:33:38;101149.69;;;22.18;62.35
45285;BME280;31026;43.780;25.948;2022-10-30T12:36:09;101146.25;;;22.26;62.91
45285;BME280;31026;43.780;25.948;2022-10-30T12:38:44;101150.53;;;22.29;61.85
45285;BME280;31026;43.780;25.948;2022-10-30T12:41:15;101155.75;;;22.20;62.41
45285;BME280;31026;43.780;25.948;2022-10-30T12:43:47;101142.16;;;22.12;63.28
45285;BME280;31026;43.780;25.948;2022-10-30T12:46:26;101077.56;;;21.65;62.78
45285;BME280;31026;43.780;25.948;2022-10-30T12:48:56;101141.03;;;22.15;62.61
45285;BME280;31026;43.780;25.948;2022-10-30T12:51:30;101138.66;;;22.02;61.55
45285;BME280;31026;43.780;25.948;2022-10-30T12:54:04;101139.94;;;21.98;62.33
45285;BME280;31026;43.780;25.948;2022-10-30T12:56:35;101137.00;;;21.91;62.58
45285;BME280;31026;43.780;25.948;2022-10-30T13:01:48;101122.88;;;21.60;62.33
45285;BME280;31026;43.780;25.948;2022-10-30T13:04:19;101128.84;;;21.54;62.01
45285;BME280;31026;43.780;25.948;2022-10-30T13:06:50;101146.25;;;21.50;61.52